sensor_id;sensor_type;location;lat;lon;timestamp;temperature;humidity
38938;DHT22;24727;51.974;20.868;2023-09-19T00:01:23;16.80;1.00
38938;DHT22;24727;51.974;20.868;2023-09-19T00:03:50;16.80;1.00
38938;DHT22;24727;51.974;20.868;2023-09-19T00:06:15;16.80;1.00
38938;DHT22;24727;51.974;20.868;2023-09-19T00:08:42;16.80;1.00
38938;DHT22;24727;51.974;20.868;2023-09-19T00:11:11;16.70;1.00
38938;DHT22;24727;51.974;20.868;2023-09-19T00:13:37;16.70;1.00
38938;DHT22;24727;51.974;20.868;2023-09-19T00:16:10;16.70;1.00
38938;DHT22;24727;51.974;20.868;2023-09-19T00:18:38;16.60;1.00
38938;DHT22;24727;51.974;20.868;2023-09-19T00:21:05;16.60;1.00
38938;DHT22;24727;51.974;20.868;2023-09-19T00:23:32;16.60;1.00
38938;DHT22;24727;51.974;20.868;2023-09-19T00:26:01;16.50;1.00
38938;DHT22;24727;51.974;20.868;2023-09-19T00:28:29;16.50;1.00
38938;DHT22;24727;51.974;20.868;2023-09-19T00:30:58;16.50;1.00
38938;DHT22;24727;51.974;20.868;2023-09-19T00:33:27;16.50;1.00
38938;DHT22;24727;51.974;20.868;2023-09-19T00:35:57;16.50;1.00
38938;DHT22;24727;51.974;20.868;2023-09-19T00:38:23;16.50;1.00
38938;DHT22;24727;51.974;20.868;2023-09-19T00:40:54;16.50;1.00
38938;DHT22;24727;51.974;20.868;2023-09-19T00:43:21;16.50;1.00
38938;DHT22;24727;51.974;20.868;2023-09-19T00:45:52;16.50;1.00
38938;DHT22;24727;51.974;20.868;2023-09-19T00:48:23;16.50;1.00
38938;DHT22;24727;51.974;20.868;2023-09-19T00:50:53;16.50;1.00
38938;DHT22;24727;51.974;20.868;2023-09-19T00:53:21;16.60;1.00
38938;DHT22;24727;51.974;20.868;2023-09-19T00:55:49;16.60;1.00
38938;DHT22;24727;51.974;20.868;2023-09-19T00:58:17;16.60;1.00
38938;DHT22;24727;51.974;20.868;2023-09-19T01:03:19;16.60;1.00
38938;DHT22;24727;51.974;20.868;2023-09-19T01:05:45;16.50;1.00
38938;DHT22;24727;51.974;20.868;2023-09-19T01:08:11;16.50;1.00
38938;DHT22;24727;51.974;20.868;2023-09-19T01:10:46;16.50;1.00
38938;DHT22;24727;51.974;20.868;2023-09-19T01:13:30;16.50;1.00
38938;DHT22;24727;51.974;20.868;2023-09-19T01:19:01;16.50;1.00
38938;DHT22;24727;51.974;20.868;2023-09-19T01:24:22;16.50;1.00
38938;DHT22;24727;51.974;20.868;2023-09-19T01:29:43;16.50;1.00
38938;DHT22;24727;51.974;20.868;2023-09-19T01:32:13;16.50;1.00
38938;DHT22;24727;51.974;20.868;2023-09-19T01:34:56;16.40;1.00
38938;DHT22;24727;51.974;20.868;2023-09-19T01:37:25;16.40;1.00
38938;DHT22;24727;51.974;20.868;2023-09-19T01:39:57;16.40;1.00
38938;DHT22;24727;51.974;20.868;2023-09-19T01:42:54;16.40;1.00
38938;DHT22;24727;51.974;20.868;2023-09-19T01:51:07;16.30;1.00
38938;DHT22;24727;51.974;20.868;2023-09-19T01:54:01;16.20;1.00
38938;DHT22;24727;51.974;20.868;2023-09-19T01:57:03;16.30;1.00
38938;DHT22;24727;51.974;20.868;2023-09-19T01:59:41;16.40;1.00
38938;DHT22;24727;51.974;20.868;2023-09-19T02:02:10;16.40;1.00
38938;DHT22;24727;51.974;20.868;2023-09-19T02:04:43;16.40;1.00
38938;DHT22;24727;51.974;20.868;2023-09-19T02:07:09;16.40;1.00
38938;DHT22;24727;51.974;20.868;2023-09-19T02:09:41;16.40;1.00
38938;DHT22;24727;51.974;20.868;2023-09-19T02:12:09;16.50;1.00
38938;DHT22;24727;51.974;20.868;2023-09-19T02:14:35;16.40;1.00
38938;DHT22;24727;51.974;20.868;2023-09-19T02:17:02;16.40;1.00
38938;DHT22;24727;51.974;20.868;2023-09-19T02:19:33;16.40;1.00
38938;DHT22;24727;51.974;20.868;2023-09-19T02:22:00;16.40;1.00
38938;DHT22;24727;51.974;20.868;2023-09-19T02:24:37;16.40;1.00
38938;DHT22;24727;51.974;20.868;2023-09-19T02:27:04;16.40;1.00
38938;DHT22;24727;51.974;20.868;2023-09-19T02:29:31;16.40;1.00
38938;DHT22;24727;51.974;20.868;2023-09-19T02:32:02;16.30;1.00
38938;DHT22;24727;51.974;20.868;2023-09-19T02:34:29;16.30;1.00
38938;DHT22;24727;51.974;20.868;2023-09-19T02:36:55;16.30;1.00
38938;DHT22;24727;51.974;20.868;2023-09-19T02:39:22;16.30;1.00
38938;DHT22;24727;51.974;20.868;2023-09-19T02:41:50;16.20;1.00
38938;DHT22;24727;51.974;20.868;2023-09-19T02:44:17;16.20;1.00
38938;DHT22;24727;51.974;20.868;2023-09-19T02:46:42;16.20;1.00
38938;DHT22;24727;51.974;20.868;2023-09-19T02:49:08;16.20;1.00
38938;DHT22;24727;51.974;20.868;2023-09-19T02:51:34;16.20;1.00
38938;DHT22;24727;51.974;20.868;2023-09-19T02:54:00;16.20;1.00
38938;DHT22;24727;51.974;20.868;2023-09-19T02:56:28;16.20;1.00
38938;DHT22;24727;51.974;20.868;2023-09-19T02:58:56;16.30;1.00
38938;DHT22;24727;51.974;20.868;2023-09-19T03:01:23;16.30;1.00
38938;DHT22;24727;51.974;20.868;2023-09-19T03:03:49;16.40;1.00
38938;DHT22;24727;51.974;20.868;2023-09-19T03:06:15;16.30;1.00
38938;DHT22;24727;51.974;20.868;2023-09-19T03:08:43;16.30;1.00
38938;DHT22;24727;51.974;20.868;2023-09-19T03:11:09;16.30;1.00
38938;DHT22;24727;51.974;20.868;2023-09-19T03:13:37;16.20;1.00
38938;DHT22;24727;51.974;20.868;2023-09-19T03:16:04;16.30;1.00
38938;DHT22;24727;51.974;20.868;2023-09-19T03:18:37;16.30;1.00
38938;DHT22;24727;51.974;20.868;2023-09-19T03:21:03;16.20;1.00
38938;DHT22;24727;51.974;20.868;2023-09-19T03:23:30;16.20;1.00
38938;DHT22;24727;51.974;20.868;2023-09-19T03:25:56;16.20;1.00
38938;DHT22;24727;51.974;20.868;2023-09-19T03:28:23;16.20;1.00
38938;DHT22;24727;51.974;20.868;2023-09-19T03:31:03;16.10;1.00
38938;DHT22;24727;51.974;20.868;2023-09-19T03:33:29;16.10;1.00
38938;DHT22;24727;51.974;20.868;2023-09-19T03:35:58;16.00;1.00
38938;DHT22;24727;51.974;20.868;2023-09-19T03:38:25;16.00;1.00
38938;DHT22;24727;51.974;20.868;2023-09-19T03:40:51;15.90;1.00
38938;DHT22;24727;51.974;20.868;2023-09-19T03:43:17;15.90;1.00
38938;DHT22;24727;51.974;20.868;2023-09-19T03:45:44;16.00;1.00
38938;DHT22;24727;51.974;20.868;2023-09-19T03:48:12;15.90;1.00
38938;DHT22;24727;51.974;20.868;2023-09-19T03:50:39;15.90;1.00
38938;DHT22;24727;51.974;20.868;2023-09-19T03:53:05;15.90;1.00
38938;DHT22;24727;51.974;20.868;2023-09-19T03:55:33;15.90;1.00
38938;DHT22;24727;51.974;20.868;2023-09-19T03:58:04;15.90;1.00
38938;DHT22;24727;51.974;20.868;2023-09-19T04:00:31;15.90;1.00
38938;DHT22;24727;51.974;20.868;2023-09-19T04:02:57;15.80;1.00
38938;DHT22;24727;51.974;20.868;2023-09-19T04:05:24;15.80;1.00
38938;DHT22;24727;51.974;20.868;2023-09-19T04:07:49;15.80;1.00
38938;DHT22;24727;51.974;20.868;2023-09-19T04:10:18;15.80;1.00
38938;DHT22;24727;51.974;20.868;2023-09-19T04:12:59;15.80;1.00
38938;DHT22;24727;51.974;20.868;2023-09-19T04:15:25;15.80;1.00
38938;DHT22;24727;51.974;20.868;2023-09-19T04:17:51;15.80;1.00
38938;DHT22;24727;51.974;20.868;2023-09-19T04:20:18;15.80;1.00
38938;DHT22;24727;51.974;20.868;2023-09-19T04:22:46;15.70;1.00
38938;DHT22;24727;51.974;20.868;2023-09-19T04:25:12;15.70;1.00
38938;DHT22;24727;51.974;20.868;2023-09-19T04:27:39;15.70;1.00
38938;DHT22;24727;51.974;20.868;2023-09-19T04:30:13;15.70;1.00
38938;DHT22;24727;51.974;20.868;2023-09-19T04:32:40;15.70;1.00
38938;DHT22;24727;51.974;20.868;2023-09-19T04:35:08;15.60;1.00
38938;DHT22;24727;51.974;20.868;2023-09-19T04:37:41;15.60;1.00
38938;DHT22;24727;51.974;20.868;2023-09-19T04:40:08;15.60;1.00
38938;DHT22;24727;51.974;20.868;2023-09-19T04:42:56;15.50;1.00
38938;DHT22;24727;51.974;20.868;2023-09-19T04:45:23;15.60;1.00
38938;DHT22;24727;51.974;20.868;2023-09-19T04:47:49;15.70;1.00
38938;DHT22;24727;51.974;20.868;2023-09-19T04:50:15;15.70;1.00
38938;DHT22;24727;51.974;20.868;2023-09-19T04:52:44;15.60;1.00
38938;DHT22;24727;51.974;20.868;2023-09-19T04:55:14;15.60;1.00
38938;DHT22;24727;51.974;20.868;2023-09-19T04:57:47;15.80;1.00
38938;DHT22;24727;51.974;20.868;2023-09-19T05:00:18;15.80;1.00
38938;DHT22;24727;51.974;20.868;2023-09-19T05:02:51;15.90;1.00
38938;DHT22;24727;51.974;20.868;2023-09-19T05:05:18;15.90;1.00
38938;DHT22;24727;51.974;20.868;2023-09-19T05:07:45;16.00;1.00
38938;DHT22;24727;51.974;20.868;2023-09-19T05:10:12;16.00;1.00
38938;DHT22;24727;51.974;20.868;2023-09-19T05:12:39;16.00;1.00
38938;DHT22;24727;51.974;20.868;2023-09-19T05:15:07;16.00;1.00
38938;DHT22;24727;51.974;20.868;2023-09-19T05:17:37;16.00;1.00
38938;DHT22;24727;51.974;20.868;2023-09-19T05:20:05;16.10;1.00
38938;DHT22;24727;51.974;20.868;2023-09-19T05:22:43;16.10;1.00
38938;DHT22;24727;51.974;20.868;2023-09-19T05:25:10;16.20;1.00
38938;DHT22;24727;51.974;20.868;2023-09-19T05:27:36;16.20;1.00
38938;DHT22;24727;51.974;20.868;2023-09-19T05:30:03;16.30;1.00
38938;DHT22;24727;51.974;20.868;2023-09-19T05:32:29;16.30;1.00
38938;DHT22;24727;51.974;20.868;2023-09-19T05:34:56;16.40;1.00
38938;DHT22;24727;51.974;20.868;2023-09-19T05:37:24;16.40;1.00
38938;DHT22;24727;51.974;20.868;2023-09-19T05:39:52;16.40;1.00
38938;DHT22;24727;51.974;20.868;2023-09-19T05:42:19;16.50;1.00
38938;DHT22;24727;51.974;20.868;2023-09-19T05:44:45;16.60;1.00
38938;DHT22;24727;51.974;20.868;2023-09-19T05:47:12;16.60;1.00
38938;DHT22;24727;51.974;20.868;2023-09-19T05:49:38;16.70;1.00
38938;DHT22;24727;51.974;20.868;2023-09-19T05:52:05;16.70;1.00
38938;DHT22;24727;51.974;20.868;2023-09-19T05:54:32;16.80;1.00
38938;DHT22;24727;51.974;20.868;2023-09-19T05:57:00;16.80;1.00
38938;DHT22;24727;51.974;20.868;2023-09-19T05:59:27;16.90;1.00
38938;DHT22;24727;51.974;20.868;2023-09-19T06:01:53;16.90;1.00
38938;DHT22;24727;51.974;20.868;2023-09-19T06:04:19;16.90;1.00
38938;DHT22;24727;51.974;20.868;2023-09-19T06:06:46;17.00;1.00
38938;DHT22;24727;51.974;20.868;2023-09-19T06:09:12;17.00;1.00
38938;DHT22;24727;51.974;20.868;2023-09-19T06:11:41;17.00;1.00
38938;DHT22;24727;51.974;20.868;2023-09-19T06:14:07;17.10;1.00
38938;DHT22;24727;51.974;20.868;2023-09-19T06:16:33;17.20;1.00
38938;DHT22;24727;51.974;20.868;2023-09-19T06:18:59;17.20;1.00
38938;DHT22;24727;51.974;20.868;2023-09-19T06:21:31;17.20;1.00
38938;DHT22;24727;51.974;20.868;2023-09-19T06:23:58;17.30;1.00
38938;DHT22;24727;51.974;20.868;2023-09-19T06:26:26;17.40;1.00
38938;DHT22;24727;51.974;20.868;2023-09-19T06:28:54;17.40;1.00
38938;DHT22;24727;51.974;20.868;2023-09-19T06:31:21;17.40;1.00
38938;DHT22;24727;51.974;20.868;2023-09-19T06:33:53;17.40;1.00
38938;DHT22;24727;51.974;20.868;2023-09-19T06:36:18;17.40;1.00
38938;DHT22;24727;51.974;20.868;2023-09-19T06:38:45;17.40;1.00
38938;DHT22;24727;51.974;20.868;2023-09-19T06:41:12;17.40;1.00
38938;DHT22;24727;51.974;20.868;2023-09-19T06:43:40;17.50;1.00
38938;DHT22;24727;51.974;20.868;2023-09-19T06:46:05;17.50;1.00
38938;DHT22;24727;51.974;20.868;2023-09-19T06:48:33;17.50;1.00
38938;DHT22;24727;51.974;20.868;2023-09-19T06:51:00;17.60;1.00
38938;DHT22;24727;51.974;20.868;2023-09-19T06:53:27;17.60;1.00
38938;DHT22;24727;51.974;20.868;2023-09-19T06:55:58;17.70;1.00
38938;DHT22;24727;51.974;20.868;2023-09-19T06:58:23;17.80;1.00
38938;DHT22;24727;51.974;20.868;2023-09-19T07:00:49;17.90;1.00
38938;DHT22;24727;51.974;20.868;2023-09-19T07:03:19;18.00;1.00
38938;DHT22;24727;51.974;20.868;2023-09-19T07:05:48;18.00;1.00
38938;DHT22;24727;51.974;20.868;2023-09-19T07:08:17;18.10;1.00
38938;DHT22;24727;51.974;20.868;2023-09-19T07:10:46;18.00;1.00
38938;DHT22;24727;51.974;20.868;2023-09-19T07:13:16;18.10;1.00
38938;DHT22;24727;51.974;20.868;2023-09-19T07:15:43;18.20;1.00
38938;DHT22;24727;51.974;20.868;2023-09-19T07:18:14;18.20;1.00
38938;DHT22;24727;51.974;20.868;2023-09-19T07:20:43;18.30;1.00
38938;DHT22;24727;51.974;20.868;2023-09-19T07:23:20;18.30;1.00
38938;DHT22;24727;51.974;20.868;2023-09-19T07:25:47;18.40;1.00
38938;DHT22;24727;51.974;20.868;2023-09-19T07:28:14;18.60;1.00
38938;DHT22;24727;51.974;20.868;2023-09-19T07:30:44;18.80;1.00
38938;DHT22;24727;51.974;20.868;2023-09-19T07:33:12;18.90;1.00
38938;DHT22;24727;51.974;20.868;2023-09-19T07:35:39;19.10;1.00
38938;DHT22;24727;51.974;20.868;2023-09-19T07:38:06;19.10;1.00
38938;DHT22;24727;51.974;20.868;2023-09-19T07:40:33;19.20;1.00
38938;DHT22;24727;51.974;20.868;2023-09-19T07:43:00;19.20;1.00
38938;DHT22;24727;51.974;20.868;2023-09-19T07:45:33;19.20;1.00
38938;DHT22;24727;51.974;20.868;2023-09-19T07:48:00;19.10;1.00
38938;DHT22;24727;51.974;20.868;2023-09-19T07:50:30;19.10;1.00
38938;DHT22;24727;51.974;20.868;2023-09-19T07:52:56;19.30;1.00
38938;DHT22;24727;51.974;20.868;2023-09-19T07:55:22;19.30;1.00
38938;DHT22;24727;51.974;20.868;2023-09-19T07:57:55;19.40;1.00
38938;DHT22;24727;51.974;20.868;2023-09-19T08:00:21;19.40;1.00
38938;DHT22;24727;51.974;20.868;2023-09-19T08:02:47;19.40;1.00
38938;DHT22;24727;51.974;20.868;2023-09-19T08:05:14;19.40;1.00
38938;DHT22;24727;51.974;20.868;2023-09-19T08:07:45;19.40;1.00
38938;DHT22;24727;51.974;20.868;2023-09-19T08:10:15;19.40;1.00
38938;DHT22;24727;51.974;20.868;2023-09-19T08:12:43;19.40;1.00
38938;DHT22;24727;51.974;20.868;2023-09-19T08:15:21;19.50;1.00
38938;DHT22;24727;51.974;20.868;2023-09-19T08:17:47;19.50;1.00
38938;DHT22;24727;51.974;20.868;2023-09-19T08:20:15;19.50;1.00
38938;DHT22;24727;51.974;20.868;2023-09-19T08:22:53;19.60;1.00
38938;DHT22;24727;51.974;20.868;2023-09-19T08:25:22;19.60;1.00
38938;DHT22;24727;51.974;20.868;2023-09-19T08:27:49;19.60;1.00
38938;DHT22;24727;51.974;20.868;2023-09-19T08:30:16;19.60;1.00
38938;DHT22;24727;51.974;20.868;2023-09-19T08:32:44;19.60;1.00
38938;DHT22;24727;51.974;20.868;2023-09-19T08:35:12;19.60;1.00
38938;DHT22;24727;51.974;20.868;2023-09-19T08:37:38;19.50;1.00
38938;DHT22;24727;51.974;20.868;2023-09-19T08:40:05;19.50;1.00
38938;DHT22;24727;51.974;20.868;2023-09-19T08:42:56;19.50;1.00
38938;DHT22;24727;51.974;20.868;2023-09-19T08:45:23;19.60;1.00
38938;DHT22;24727;51.974;20.868;2023-09-19T08:48:24;19.60;1.00
38938;DHT22;24727;51.974;20.868;2023-09-19T08:50:57;19.60;1.00
38938;DHT22;24727;51.974;20.868;2023-09-19T08:53:42;19.70;1.00
38938;DHT22;24727;51.974;20.868;2023-09-19T08:56:17;19.70;1.00
38938;DHT22;24727;51.974;20.868;2023-09-19T08:58:55;19.70;1.00
38938;DHT22;24727;51.974;20.868;2023-09-19T09:01:27;19.70;1.00
38938;DHT22;24727;51.974;20.868;2023-09-19T09:03:56;19.60;1.00
38938;DHT22;24727;51.974;20.868;2023-09-19T09:06:25;19.60;1.00
38938;DHT22;24727;51.974;20.868;2023-09-19T09:08:51;19.50;1.00
38938;DHT22;24727;51.974;20.868;2023-09-19T09:11:18;19.40;1.00
38938;DHT22;24727;51.974;20.868;2023-09-19T09:13:47;19.40;1.00
38938;DHT22;24727;51.974;20.868;2023-09-19T09:16:15;19.20;1.00
38938;DHT22;24727;51.974;20.868;2023-09-19T09:18:46;19.10;1.00
38938;DHT22;24727;51.974;20.868;2023-09-19T09:21:19;19.00;1.00
38938;DHT22;24727;51.974;20.868;2023-09-19T09:23:48;18.90;1.00
38938;DHT22;24727;51.974;20.868;2023-09-19T09:26:15;18.70;1.00
38938;DHT22;24727;51.974;20.868;2023-09-19T09:28:45;18.50;1.00
38938;DHT22;24727;51.974;20.868;2023-09-19T09:31:34;18.30;1.00
38938;DHT22;24727;51.974;20.868;2023-09-19T09:34:00;18.20;1.00
38938;DHT22;24727;51.974;20.868;2023-09-19T09:36:37;18.20;1.00
38938;DHT22;24727;51.974;20.868;2023-09-19T09:39:03;18.30;1.00
38938;DHT22;24727;51.974;20.868;2023-09-19T09:41:42;18.40;1.00
38938;DHT22;24727;51.974;20.868;2023-09-19T09:44:13;18.50;1.00
38938;DHT22;24727;51.974;20.868;2023-09-19T09:46:43;18.50;1.00
38938;DHT22;24727;51.974;20.868;2023-09-19T09:49:27;18.40;1.00
38938;DHT22;24727;51.974;20.868;2023-09-19T09:52:08;18.30;1.00
38938;DHT22;24727;51.974;20.868;2023-09-19T09:55:03;18.10;1.00
38938;DHT22;24727;51.974;20.868;2023-09-19T09:57:34;18.00;4.60
38938;DHT22;24727;51.974;20.868;2023-09-19T10:00:01;18.00;8.10
38938;DHT22;24727;51.974;20.868;2023-09-19T10:02:39;17.90;11.90
38938;DHT22;24727;51.974;20.868;2023-09-19T10:05:19;17.80;14.20
38938;DHT22;24727;51.974;20.868;2023-09-19T10:07:49;17.80;16.00
38938;DHT22;24727;51.974;20.868;2023-09-19T10:10:38;17.80;17.40
38938;DHT22;24727;51.974;20.868;2023-09-19T10:13:12;17.90;19.10
38938;DHT22;24727;51.974;20.868;2023-09-19T10:15:39;17.90;20.50
38938;DHT22;24727;51.974;20.868;2023-09-19T10:18:12;17.80;22.20
38938;DHT22;24727;51.974;20.868;2023-09-19T10:20:45;17.80;22.90
38938;DHT22;24727;51.974;20.868;2023-09-19T10:23:12;17.90;24.90
38938;DHT22;24727;51.974;20.868;2023-09-19T10:25:42;17.80;25.50
38938;DHT22;24727;51.974;20.868;2023-09-19T10:28:10;17.90;25.80
38938;DHT22;24727;51.974;20.868;2023-09-19T10:30:44;17.90;25.30
38938;DHT22;24727;51.974;20.868;2023-09-19T10:33:14;18.10;25.40
38938;DHT22;24727;51.974;20.868;2023-09-19T10:35:45;18.10;23.10
38938;DHT22;24727;51.974;20.868;2023-09-19T10:38:13;18.20;23.10
38938;DHT22;24727;51.974;20.868;2023-09-19T10:40:41;18.20;22.90
38938;DHT22;24727;51.974;20.868;2023-09-19T10:43:19;18.30;19.90
38938;DHT22;24727;51.974;20.868;2023-09-19T10:45:49;18.20;20.10
38938;DHT22;24727;51.974;20.868;2023-09-19T10:48:16;18.30;17.90
38938;DHT22;24727;51.974;20.868;2023-09-19T10:53:29;18.40;1.00
38938;DHT22;24727;51.974;20.868;2023-09-19T10:55:59;18.50;1.00
38938;DHT22;24727;51.974;20.868;2023-09-19T10:58:29;18.70;1.00
38938;DHT22;24727;51.974;20.868;2023-09-19T11:01:11;18.80;1.00
38938;DHT22;24727;51.974;20.868;2023-09-19T11:03:39;19.00;1.00
38938;DHT22;24727;51.974;20.868;2023-09-19T11:06:14;19.00;1.00
38938;DHT22;24727;51.974;20.868;2023-09-19T11:09:03;18.70;1.00
38938;DHT22;24727;51.974;20.868;2023-09-19T11:14:17;18.30;7.30
38938;DHT22;24727;51.974;20.868;2023-09-19T11:30:48;18.60;1.00
38938;DHT22;24727;51.974;20.868;2023-09-19T11:33:24;18.50;3.70
38938;DHT22;24727;51.974;20.868;2023-09-19T11:36:03;18.40;5.40
38938;DHT22;24727;51.974;20.868;2023-09-19T11:46:54;18.40;6.70
38938;DHT22;24727;51.974;20.868;2023-09-19T11:49:30;18.40;5.80
38938;DHT22;24727;51.974;20.868;2023-09-19T11:51:58;18.40;8.10
38938;DHT22;24727;51.974;20.868;2023-09-19T11:54:31;18.30;9.50
38938;DHT22;24727;51.974;20.868;2023-09-19T11:56:58;18.20;12.00
38938;DHT22;24727;51.974;20.868;2023-09-19T11:59:27;18.30;12.30
38938;DHT22;24727;51.974;20.868;2023-09-19T12:02:01;18.30;13.60
38938;DHT22;24727;51.974;20.868;2023-09-19T12:04:39;18.10;13.40
38938;DHT22;24727;51.974;20.868;2023-09-19T12:07:08;18.10;14.10
38938;DHT22;24727;51.974;20.868;2023-09-19T12:09:42;18.20;15.60
38938;DHT22;24727;51.974;20.868;2023-09-19T12:12:22;18.10;14.40
38938;DHT22;24727;51.974;20.868;2023-09-19T12:14:51;18.10;15.30
38938;DHT22;24727;51.974;20.868;2023-09-19T12:17:17;18.10;15.90
38938;DHT22;24727;51.974;20.868;2023-09-19T12:19:55;18.10;16.40
38938;DHT22;24727;51.974;20.868;2023-09-19T12:22:21;18.20;17.70
38938;DHT22;24727;51.974;20.868;2023-09-19T12:24:48;18.20;18.10
38938;DHT22;24727;51.974;20.868;2023-09-19T12:27:16;18.10;17.10
38938;DHT22;24727;51.974;20.868;2023-09-19T12:29:48;18.10;14.30
38938;DHT22;24727;51.974;20.868;2023-09-19T12:32:41;18.20;12.20
38938;DHT22;24727;51.974;20.868;2023-09-19T12:35:09;18.20;12.20
38938;DHT22;24727;51.974;20.868;2023-09-19T12:37:37;18.20;12.10
38938;DHT22;24727;51.974;20.868;2023-09-19T12:40:11;18.20;13.60
38938;DHT22;24727;51.974;20.868;2023-09-19T12:42:44;18.20;12.10
38938;DHT22;24727;51.974;20.868;2023-09-19T12:45:12;18.20;12.00
38938;DHT22;24727;51.974;20.868;2023-09-19T12:51:08;18.30;12.10
38938;DHT22;24727;51.974;20.868;2023-09-19T12:53:46;18.30;12.20
38938;DHT22;24727;51.974;20.868;2023-09-19T12:56:23;18.40;12.20
38938;DHT22;24727;51.974;20.868;2023-09-19T12:58:57;18.50;10.10
38938;DHT22;24727;51.974;20.868;2023-09-19T13:01:28;18.50;10.20
38938;DHT22;24727;51.974;20.868;2023-09-19T13:04:21;18.60;8.90
38938;DHT22;24727;51.974;20.868;2023-09-19T13:06:56;18.50;8.70
38938;DHT22;24727;51.974;20.868;2023-09-19T13:09:27;18.60;7.50
38938;DHT22;24727;51.974;20.868;2023-09-19T13:12:05;18.60;7.50
38938;DHT22;24727;51.974;20.868;2023-09-19T13:15:16;18.70;6.90
38938;DHT22;24727;51.974;20.868;2023-09-19T13:17:49;18.70;1.70
38938;DHT22;24727;51.974;20.868;2023-09-19T13:20:25;18.70;4.10
38938;DHT22;24727;51.974;20.868;2023-09-19T13:22:55;18.80;1.20
38938;DHT22;24727;51.974;20.868;2023-09-19T13:25:27;18.80;3.50
38938;DHT22;24727;51.974;20.868;2023-09-19T13:27:57;18.70;4.50
38938;DHT22;24727;51.974;20.868;2023-09-19T13:30:28;18.70;5.10
38938;DHT22;24727;51.974;20.868;2023-09-19T13:33:09;18.70;5.40
38938;DHT22;24727;51.974;20.868;2023-09-19T13:35:36;18.70;2.60
38938;DHT22;24727;51.974;20.868;2023-09-19T13:38:08;18.70;2.50
38938;DHT22;24727;51.974;20.868;2023-09-19T13:40:41;18.70;1.00
38938;DHT22;24727;51.974;20.868;2023-09-19T13:43:09;18.70;1.00
38938;DHT22;24727;51.974;20.868;2023-09-19T13:45:37;18.80;1.00
38938;DHT22;24727;51.974;20.868;2023-09-19T13:48:04;18.80;1.20
38938;DHT22;24727;51.974;20.868;2023-09-19T13:50:31;18.80;2.50
38938;DHT22;24727;51.974;20.868;2023-09-19T13:52:57;18.90;1.30
38938;DHT22;24727;51.974;20.868;2023-09-19T13:55:26;18.90;1.30
38938;DHT22;24727;51.974;20.868;2023-09-19T13:57:53;18.90;1.30
38938;DHT22;24727;51.974;20.868;2023-09-19T14:00:24;18.90;1.20
38938;DHT22;24727;51.974;20.868;2023-09-19T14:02:51;18.90;1.20
38938;DHT22;24727;51.974;20.868;2023-09-19T14:05:17;18.90;1.00
38938;DHT22;24727;51.974;20.868;2023-09-19T14:07:44;19.00;1.00
38938;DHT22;24727;51.974;20.868;2023-09-19T14:10:11;19.00;1.00
38938;DHT22;24727;51.974;20.868;2023-09-19T14:12:38;19.00;1.00
38938;DHT22;24727;51.974;20.868;2023-09-19T14:15:07;18.90;1.00
38938;DHT22;24727;51.974;20.868;2023-09-19T14:17:35;18.90;1.00
38938;DHT22;24727;51.974;20.868;2023-09-19T14:20:01;18.90;1.00
38938;DHT22;24727;51.974;20.868;2023-09-19T14:22:27;18.90;1.00
38938;DHT22;24727;51.974;20.868;2023-09-19T14:24:53;18.90;1.00
38938;DHT22;24727;51.974;20.868;2023-09-19T14:27:19;18.90;1.00
38938;DHT22;24727;51.974;20.868;2023-09-19T14:29:45;18.90;1.00
38938;DHT22;24727;51.974;20.868;2023-09-19T14:32:11;19.00;1.00
38938;DHT22;24727;51.974;20.868;2023-09-19T14:34:39;19.00;1.00
38938;DHT22;24727;51.974;20.868;2023-09-19T14:37:08;19.00;1.00
38938;DHT22;24727;51.974;20.868;2023-09-19T14:39:35;19.00;1.00
38938;DHT22;24727;51.974;20.868;2023-09-19T14:42:01;19.00;1.00
38938;DHT22;24727;51.974;20.868;2023-09-19T14:44:31;19.00;1.00
38938;DHT22;24727;51.974;20.868;2023-09-19T14:46:58;19.00;1.00
38938;DHT22;24727;51.974;20.868;2023-09-19T14:49:24;19.00;1.00
38938;DHT22;24727;51.974;20.868;2023-09-19T14:51:51;19.00;1.00
38938;DHT22;24727;51.974;20.868;2023-09-19T14:54:19;19.00;1.00
38938;DHT22;24727;51.974;20.868;2023-09-19T14:56:45;19.00;1.00
38938;DHT22;24727;51.974;20.868;2023-09-19T14:59:20;19.00;1.00
38938;DHT22;24727;51.974;20.868;2023-09-19T15:01:46;19.00;1.00
38938;DHT22;24727;51.974;20.868;2023-09-19T15:04:12;19.00;1.00
38938;DHT22;24727;51.974;20.868;2023-09-19T15:06:38;19.00;1.00
38938;DHT22;24727;51.974;20.868;2023-09-19T15:09:04;19.00;1.00
38938;DHT22;24727;51.974;20.868;2023-09-19T15:11:33;18.90;1.00
38938;DHT22;24727;51.974;20.868;2023-09-19T15:13:59;18.90;1.00
38938;DHT22;24727;51.974;20.868;2023-09-19T15:16:26;18.90;1.00
38938;DHT22;24727;51.974;20.868;2023-09-19T15:18:54;18.90;1.00
38938;DHT22;24727;51.974;20.868;2023-09-19T15:21:22;19.00;1.00
38938;DHT22;24727;51.974;20.868;2023-09-19T15:23:50;19.00;1.00
38938;DHT22;24727;51.974;20.868;2023-09-19T15:26:23;18.90;1.00
38938;DHT22;24727;51.974;20.868;2023-09-19T15:28:51;18.90;1.00
38938;DHT22;24727;51.974;20.868;2023-09-19T15:31:22;18.90;1.00
38938;DHT22;24727;51.974;20.868;2023-09-19T15:33:49;18.90;1.00
38938;DHT22;24727;51.974;20.868;2023-09-19T15:36:16;18.80;1.00
38938;DHT22;24727;51.974;20.868;2023-09-19T15:39:04;18.80;1.00
38938;DHT22;24727;51.974;20.868;2023-09-19T15:41:34;18.80;1.00
38938;DHT22;24727;51.974;20.868;2023-09-19T15:44:01;18.80;1.00
38938;DHT22;24727;51.974;20.868;2023-09-19T15:46:30;18.80;1.00
38938;DHT22;24727;51.974;20.868;2023-09-19T15:48:56;18.80;1.00
38938;DHT22;24727;51.974;20.868;2023-09-19T15:51:23;18.90;1.00
38938;DHT22;24727;51.974;20.868;2023-09-19T15:53:52;19.00;1.00
38938;DHT22;24727;51.974;20.868;2023-09-19T15:56:20;19.00;1.00
38938;DHT22;24727;51.974;20.868;2023-09-19T15:58:51;18.90;1.00
38938;DHT22;24727;51.974;20.868;2023-09-19T16:01:17;18.90;1.00
38938;DHT22;24727;51.974;20.868;2023-09-19T16:03:55;18.90;1.00
38938;DHT22;24727;51.974;20.868;2023-09-19T16:06:24;18.80;1.00
38938;DHT22;24727;51.974;20.868;2023-09-19T16:08:53;18.90;1.00
38938;DHT22;24727;51.974;20.868;2023-09-19T16:11:22;18.80;1.00
38938;DHT22;24727;51.974;20.868;2023-09-19T16:13:50;18.80;1.00
38938;DHT22;24727;51.974;20.868;2023-09-19T16:16:17;18.80;1.00
38938;DHT22;24727;51.974;20.868;2023-09-19T16:18:56;18.80;1.00
38938;DHT22;24727;51.974;20.868;2023-09-19T16:21:24;18.90;1.00
38938;DHT22;24727;51.974;20.868;2023-09-19T16:23:55;18.80;1.00
38938;DHT22;24727;51.974;20.868;2023-09-19T16:26:22;18.80;1.00
38938;DHT22;24727;51.974;20.868;2023-09-19T16:28:53;18.80;1.00
38938;DHT22;24727;51.974;20.868;2023-09-19T16:31:22;18.80;1.00
38938;DHT22;24727;51.974;20.868;2023-09-19T16:33:55;18.80;1.00
38938;DHT22;24727;51.974;20.868;2023-09-19T16:36:23;18.70;1.00